Time;durP1;ratioP1;P1;durP2;ratioP2;P2;SDS_P1;SDS_P2;PMS_P1;PMS_P2;Temp;Humidity;BMP_temperature;BMP_pressure;BME280_temperature;BME280_humidity;BME280_pressure;Samples;Min_cycle;Max_cycle;Signal;HPM_P1;HPM_P2
2023/01/27 00:01:50;;;;;;;27.23;15.75;;;;;;;;;;5005094;28;20038;-47
2023/01/27 00:04:16;;;;;;;25.65;14.30;;;;;;;;;;5006564;28;20077;-49
2023/01/27 00:06:41;;;;;;;24.70;13.65;;;;;;;;;;5006832;28;20526;-45
2023/01/27 00:09:07;;;;;;;21.80;13.65;;;;;;;;;;5007189;28;20029;-45
2023/01/27 00:14:16;;;;;;;22.55;12.90;;;;;;;;;;5005262;28;20095;-46
2023/01/27 00:16:41;;;;;;;20.75;12.93;;;;;;;;;;5005162;28;20445;-45
2023/01/27 00:19:07;;;;;;;16.17;11.55;;;;;;;;;;5007362;28;20065;-45
2023/01/27 00:26:59;;;;;;;17.02;11.30;;;;;;;;;;5006332;28;20088;-45
2023/01/27 00:29:25;;;;;;;20.67;11.43;;;;;;;;;;5005027;28;20454;-46
2023/01/27 00:34:34;;;;;;;18.75;10.23;;;;;;;;;;5005485;28;20157;-46
2023/01/27 00:36:59;;;;;;;19.02;11.57;;;;;;;;;;5007059;28;20105;-45
2023/01/27 00:39:25;;;;;;;17.85;10.77;;;;;;;;;;5006816;28;20038;-45
2023/01/27 00:41:50;;;;;;;20.98;11.98;;;;;;;;;;5006916;28;20025;-45
2023/01/27 00:44:16;;;;;;;18.40;11.07;;;;;;;;;;5019534;28;20037;-45
2023/01/27 00:46:41;;;;;;;18.80;11.88;;;;;;;;;;5005562;28;20025;-44
2023/01/27 00:49:08;;;;;;;19.65;11.57;;;;;;;;;;5004448;28;20133;-50
2023/01/27 00:51:35;;;;;;;17.08;10.73;;;;;;;;;;5000645;28;20543;-45
2023/01/27 00:54:01;;;;;;;18.52;11.07;;;;;;;;;;5006511;28;20050;-43
2023/01/27 00:56:27;;;;;;;16.75;10.25;;;;;;;;;;5004866;28;20112;-50
2023/01/27 00:58:52;;;;;;;15.82;10.80;;;;;;;;;;5006806;28;20185;-48
2023/01/27 01:01:18;;;;;;;16.60;9.55;;;;;;;;;;5006470;28;20042;-51
2023/01/27 01:03:43;;;;;;;14.70;9.32;;;;;;;;;;5005807;28;20421;-44
2023/01/27 01:06:11;;;;;;;14.60;9.40;;;;;;;;;;5003415;28;20036;-46
2023/01/27 01:08:37;;;;;;;18.13;10.25;;;;;;;;;;5003156;28;20407;-46
2023/01/27 01:11:03;;;;;;;15.90;9.10;;;;;;;;;;5006713;28;20033;-45
2023/01/27 01:13:29;;;;;;;17.63;9.82;;;;;;;;;;5004223;28;20044;-45
2023/01/27 01:15:56;;;;;;;16.60;9.65;;;;;;;;;;5004362;28;20038;-47
2023/01/27 01:18:21;;;;;;;16.42;10.25;;;;;;;;;;5005040;28;20522;-45
2023/01/27 01:20:47;;;;;;;14.27;9.73;;;;;;;;;;5004692;28;20034;-45
2023/01/27 01:23:14;;;;;;;16.02;9.48;;;;;;;;;;5002859;28;20038;-45
2023/01/27 01:25:39;;;;;;;18.90;9.93;;;;;;;;;;5004356;28;20036;-46
2023/01/27 01:28:06;;;;;;;18.25;10.18;;;;;;;;;;5005125;28;20038;-45
2023/01/27 01:30:36;;;;;;;14.90;9.70;;;;;;;;;;5004899;28;20114;-47
2023/01/27 01:33:02;;;;;;;17.52;10.32;;;;;;;;;;5004745;28;20042;-45
2023/01/27 01:35:28;;;;;;;15.20;9.73;;;;;;;;;;5006708;28;20046;-46
2023/01/27 01:37:54;;;;;;;13.20;9.55;;;;;;;;;;5003701;28;20069;-44
2023/01/27 01:40:21;;;;;;;15.00;9.18;;;;;;;;;;5005088;28;20157;-44
2023/01/27 01:42:53;;;;;;;16.02;9.73;;;;;;;;;;5004872;28;20074;-44
2023/01/27 01:45:30;;;;;;;16.98;10.05;;;;;;;;;;5004637;28;20500;-48
2023/01/27 01:47:58;;;;;;;15.85;9.65;;;;;;;;;;5005522;28;20046;-45
2023/01/27 01:50:24;;;;;;;15.80;9.50;;;;;;;;;;5006364;28;20025;-45
2023/01/27 01:52:50;;;;;;;17.38;9.82;;;;;;;;;;5000685;28;20046;-47
2023/01/27 01:55:16;;;;;;;13.48;9.15;;;;;;;;;;5003128;28;20439;-49
2023/01/27 01:57:44;;;;;;;17.48;8.73;;;;;;;;;;5004772;28;20125;-44
2023/01/27 02:00:10;;;;;;;14.45;9.27;;;;;;;;;;5005416;28;20037;-44
2023/01/27 02:02:36;;;;;;;13.70;9.18;;;;;;;;;;5004756;28;20045;-45
2023/01/27 02:05:10;;;;;;;18.42;8.95;;;;;;;;;;5008447;28;20158;-47
2023/01/27 02:07:56;;;;;;;16.20;8.80;;;;;;;;;;5007944;28;20092;-48
2023/01/27 02:10:21;;;;;;;12.27;8.80;;;;;;;;;;5005226;28;20017;-47
2023/01/27 02:12:47;;;;;;;15.45;9.55;;;;;;;;;;5006969;28;20037;-46
2023/01/27 02:15:12;;;;;;;13.95;9.18;;;;;;;;;;5010056;28;20080;-47
2023/01/27 02:17:38;;;;;;;14.18;8.98;;;;;;;;;;5007673;28;20041;-47
2023/01/27 02:20:10;;;;;;;14.00;9.77;;;;;;;;;;5007944;28;20021;-45
2023/01/27 02:23:00;;;;;;;16.52;9.15;;;;;;;;;;5007513;28;20038;-44
2023/01/27 02:25:33;;;;;;;13.32;8.68;;;;;;;;;;5005985;28;20026;-45
2023/01/27 02:27:59;;;;;;;;;;;;;;;;;;5005368;28;20046;-47
2023/01/27 02:30:24;;;;;;;16.17;9.48;;;;;;;;;;5005999;28;19917;-47
2023/01/27 02:32:50;;;;;;;15.02;9.00;;;;;;;;;;5007628;28;20045;-49
2023/01/27 02:35:33;;;;;;;14.10;8.95;;;;;;;;;;5008084;28;20025;-48
2023/01/27 02:37:59;;;;;;;18.40;8.93;;;;;;;;;;5008082;28;20117;-44
2023/01/27 02:40:26;;;;;;;16.40;9.38;;;;;;;;;;5006147;28;20088;-48
2023/01/27 02:42:55;;;;;;;15.15;9.95;;;;;;;;;;5007005;28;20068;-47
2023/01/27 02:45:20;;;;;;;15.73;8.82;;;;;;;;;;5006871;28;20026;-44
2023/01/27 02:47:46;;;;;;;15.65;10.05;;;;;;;;;;5006613;28;20244;-47
2023/01/27 02:50:11;;;;;;;15.23;9.07;;;;;;;;;;5006862;28;20399;-48
2023/01/27 02:52:37;;;;;;;16.90;9.68;;;;;;;;;;5007555;28;20061;-45
2023/01/27 02:55:02;;;;;;;16.85;9.18;;;;;;;;;;5007046;28;20565;-46
2023/01/27 02:57:28;;;;;;;14.98;9.35;;;;;;;;;;5008468;28;20041;-48
2023/01/27 02:59:53;;;;;;;13.82;9.00;;;;;;;;;;5007241;28;20046;-47
2023/01/27 03:02:21;;;;;;;14.25;9.15;;;;;;;;;;5009408;28;20508;-49
2023/01/27 03:04:47;;;;;;;15.73;9.63;;;;;;;;;;5005969;28;20026;-47
2023/01/27 03:07:13;;;;;;;15.43;9.88;;;;;;;;;;5006951;28;20038;-49
2023/01/27 03:09:38;;;;;;;15.57;9.80;;;;;;;;;;5009967;28;20040;-46
2023/01/27 03:12:19;;;;;;;16.08;9.10;;;;;;;;;;5008932;28;20033;-49
2023/01/27 03:20:13;;;;;;;14.85;8.98;;;;;;;;;;5007101;28;20037;-49
2023/01/27 03:22:39;;;;;;;15.18;9.15;;;;;;;;;;5006473;28;20038;-45
2023/01/27 03:25:05;;;;;;;14.93;9.38;;;;;;;;;;5007432;28;20030;-51
2023/01/27 03:27:30;;;;;;;16.17;9.35;;;;;;;;;;5007621;28;20502;-49
2023/01/27 03:29:56;;;;;;;15.85;9.50;;;;;;;;;;5007004;28;20085;-44
2023/01/27 03:32:30;;;;;;;17.02;9.27;;;;;;;;;;5007145;28;20030;-44
2023/01/27 03:34:56;;;;;;;13.93;8.77;;;;;;;;;;5004153;28;20069;-44
2023/01/27 03:48:21;;;;;;;14.00;9.20;;;;;;;;;;5005671;28;20096;-46
2023/01/27 03:50:51;;;;;;;14.00;8.75;;;;;;;;;;5007056;28;20042;-47
2023/01/27 03:53:20;;;;;;;14.90;9.65;;;;;;;;;;5006240;28;20057;-48
2023/01/27 03:55:46;;;;;;;15.30;9.43;;;;;;;;;;5005317;28;20029;-45
2023/01/27 03:58:21;;;;;;;16.30;9.65;;;;;;;;;;5008055;28;20052;-52
2023/01/27 04:01:14;;;;;;;15.95;10.00;;;;;;;;;;5007094;28;20041;-45
2023/01/27 04:09:16;;;;;;;15.98;8.73;;;;;;;;;;5006551;28;20099;-44
2023/01/27 04:11:54;;;;;;;22.15;11.57;;;;;;;;;;5005182;28;20038;-44
2023/01/27 04:14:23;;;;;;;17.48;9.95;;;;;;;;;;5037048;28;20057;-44
2023/01/27 04:16:50;;;;;;;17.95;9.68;;;;;;;;;;5005167;28;20034;-47
2023/01/27 04:19:17;;;;;;;13.88;9.68;;;;;;;;;;4990874;28;20054;-46
2023/01/27 04:21:42;;;;;;;17.98;9.95;;;;;;;;;;4985757;28;20061;-46
2023/01/27 04:24:15;;;;;;;15.85;9.45;;;;;;;;;;4985202;28;20066;-48
2023/01/27 04:26:43;;;;;;;19.33;10.25;;;;;;;;;;4985784;28;20096;-47
2023/01/27 04:29:10;;;;;;;16.15;10.13;;;;;;;;;;4984384;28;20050;-46
2023/01/27 04:31:35;;;;;;;19.77;10.02;;;;;;;;;;4990394;28;20045;-47
2023/01/27 04:34:01;;;;;;;15.45;9.70;;;;;;;;;;4992291;28;20039;-50
2023/01/27 04:36:26;;;;;;;17.38;9.88;;;;;;;;;;4998812;28;20038;-45
2023/01/27 04:38:52;;;;;;;17.58;10.20;;;;;;;;;;4995793;28;20133;-44
2023/01/27 04:41:18;;;;;;;17.10;9.93;;;;;;;;;;4993639;28;20476;-46
2023/01/27 04:43:43;;;;;;;16.38;10.02;;;;;;;;;;4991999;28;20039;-45
2023/01/27 04:46:08;;;;;;;16.85;10.25;;;;;;;;;;4995154;28;20037;-46
2023/01/27 04:48:34;;;;;;;16.73;10.30;;;;;;;;;;4998088;28;20061;-44
2023/01/27 04:50:59;;;;;;;16.63;10.10;;;;;;;;;;4998227;28;20501;-44
2023/01/27 04:53:24;;;;;;;17.55;10.60;;;;;;;;;;4995776;28;20097;-47
2023/01/27 04:55:50;;;;;;;16.35;10.13;;;;;;;;;;4993817;28;20502;-47
2023/01/27 04:58:16;;;;;;;22.63;10.02;;;;;;;;;;4991894;28;20041;-47
2023/01/27 05:00:43;;;;;;;17.58;10.48;;;;;;;;;;4995222;28;20156;-47
2023/01/27 05:03:09;;;;;;;16.48;10.30;;;;;;;;;;4997188;28;20507;-45
2023/01/27 05:05:35;;;;;;;20.20;11.15;;;;;;;;;;5020338;28;20109;-44
2023/01/27 05:08:05;;;;;;;18.20;11.18;;;;;;;;;;5004557;28;20115;-49
2023/01/27 05:10:31;;;;;;;17.60;10.38;;;;;;;;;;5005818;28;20026;-47
2023/01/27 05:12:57;;;;;;;20.60;11.68;;;;;;;;;;5003664;28;20050;-46
2023/01/27 05:15:23;;;;;;;19.27;9.85;;;;;;;;;;5006071;28;20032;-50
2023/01/27 05:17:49;;;;;;;16.90;10.38;;;;;;;;;;5004101;28;20038;-46
2023/01/27 05:20:14;;;;;;;20.92;11.45;;;;;;;;;;5008363;28;20093;-46
2023/01/27 05:22:41;;;;;;;15.77;10.63;;;;;;;;;;5003690;28;20045;-47
2023/01/27 05:25:07;;;;;;;18.35;10.15;;;;;;;;;;5003752;28;20033;-47
2023/01/27 05:27:32;;;;;;;18.52;11.00;;;;;;;;;;5004036;28;20058;-49
2023/01/27 05:29:58;;;;;;;18.15;10.63;;;;;;;;;;5006445;28;20046;-44
2023/01/27 05:32:23;;;;;;;16.40;10.88;;;;;;;;;;5001211;28;20038;-52
2023/01/27 05:34:48;;;;;;;18.00;11.32;;;;;;;;;;5008058;28;20493;-49
2023/01/27 05:37:14;;;;;;;18.95;10.57;;;;;;;;;;5003353;28;20521;-47
2023/01/27 05:39:39;;;;;;;16.30;9.98;;;;;;;;;;5003629;28;20046;-47
2023/01/27 05:42:04;;;;;;;20.23;10.80;;;;;;;;;;5008650;28;20041;-46
2023/01/27 05:44:30;;;;;;;22.77;10.35;;;;;;;;;;5009950;28;20040;-44
2023/01/27 05:46:55;;;;;;;19.75;11.60;;;;;;;;;;5007447;28;20037;-48
2023/01/27 05:49:20;;;;;;;21.65;11.27;;;;;;;;;;5007667;28;20057;-45
2023/01/27 05:51:46;;;;;;;17.20;9.82;;;;;;;;;;5009376;28;20084;-45
2023/01/27 05:54:11;;;;;;;17.27;11.38;;;;;;;;;;5008351;28;20430;-47
2023/01/27 05:56:38;;;;;;;16.13;10.82;;;;;;;;;;5008144;28;20065;-46
2023/01/27 05:59:03;;;;;;;19.00;11.82;;;;;;;;;;5023440;28;20084;-47
2023/01/27 06:01:31;;;;;;;21.13;11.40;;;;;;;;;;5007844;28;20069;-46
2023/01/27 06:03:57;;;;;;;16.77;10.55;;;;;;;;;;4992583;28;20054;-44
2023/01/27 06:06:24;;;;;;;21.00;11.35;;;;;;;;;;4987675;28;20703;-45
2023/01/27 06:08:50;;;;;;;17.40;11.20;;;;;;;;;;4994915;28;20054;-45
2023/01/27 06:11:21;;;;;;;19.42;11.57;;;;;;;;;;4991584;28;20030;-47
2023/01/27 06:13:47;;;;;;;17.75;10.68;;;;;;;;;;4991356;28;20686;-44
2023/01/27 06:16:16;;;;;;;18.02;10.93;;;;;;;;;;4988194;28;20026;-44
2023/01/27 06:18:42;;;;;;;17.33;10.35;;;;;;;;;;4987753;28;20057;-47
2023/01/27 06:21:09;;;;;;;19.20;10.98;;;;;;;;;;4988163;28;20110;-45
2023/01/27 06:23:34;;;;;;;19.73;11.00;;;;;;;;;;4986176;28;20046;-49
2023/01/27 06:26:03;;;;;;;22.48;12.43;;;;;;;;;;4985895;28;20057;-44
2023/01/27 06:28:29;;;;;;;44.88;23.58;;;;;;;;;;4994771;28;20049;-45
2023/01/27 06:30:54;;;;;;;51.80;27.95;;;;;;;;;;4993619;28;20503;-46
2023/01/27 06:33:20;;;;;;;52.38;26.55;;;;;;;;;;4993846;28;20384;-49
2023/01/27 06:35:46;;;;;;;36.58;22.30;;;;;;;;;;4989299;28;20402;-46
2023/01/27 06:38:14;;;;;;;41.58;20.88;;;;;;;;;;4987596;28;20046;-45
2023/01/27 06:40:40;;;;;;;23.58;14.57;;;;;;;;;;4988887;28;20034;-44
2023/01/27 06:43:11;;;;;;;20.33;12.43;;;;;;;;;;4985703;28;20582;-44
2023/01/27 06:45:36;;;;;;;22.80;13.35;;;;;;;;;;4985510;28;20492;-52
2023/01/27 06:48:02;;;;;;;22.95;13.40;;;;;;;;;;4986790;28;20046;-48
2023/01/27 06:50:29;;;;;;;23.02;12.77;;;;;;;;;;5014979;28;20112;-45
2023/01/27 06:53:02;;;;;;;28.20;13.77;;;;;;;;;;4989368;28;20054;-48
2023/01/27 06:55:28;;;;;;;19.35;11.93;;;;;;;;;;4997763;28;20033;-45
2023/01/27 06:57:53;;;;;;;21.08;11.98;;;;;;;;;;4997083;28;20045;-50
2023/01/27 07:00:19;;;;;;;20.95;13.80;;;;;;;;;;5007886;28;20784;-46
2023/01/27 07:02:45;;;;;;;27.67;14.73;;;;;;;;;;5006354;28;20042;-47
2023/01/27 07:05:11;;;;;;;22.85;14.88;;;;;;;;;;5010340;28;20026;-45
2023/01/27 07:07:37;;;;;;;27.83;16.95;;;;;;;;;;5008102;28;20057;-48
2023/01/27 07:10:03;;;;;;;33.17;18.75;;;;;;;;;;5008749;28;20030;-45
2023/01/27 07:12:28;;;;;;;33.15;18.88;;;;;;;;;;5005102;28;20132;-44
2023/01/27 07:14:54;;;;;;;26.52;16.23;;;;;;;;;;5003422;28;20125;-45
2023/01/27 07:17:19;;;;;;;26.02;15.10;;;;;;;;;;5007656;28;20049;-44
2023/01/27 07:19:45;;;;;;;22.13;14.05;;;;;;;;;;5003540;28;20145;-47
2023/01/27 07:22:10;;;;;;;21.63;12.50;;;;;;;;;;5008493;28;20029;-45
2023/01/27 07:24:35;;;;;;;20.55;12.05;;;;;;;;;;5007290;28;20495;-46
2023/01/27 07:27:01;;;;;;;25.85;13.57;;;;;;;;;;5005967;28;20030;-47
2023/01/27 07:29:26;;;;;;;22.38;14.32;;;;;;;;;;5003618;28;20050;-49
2023/01/27 07:31:52;;;;;;;23.90;15.38;;;;;;;;;;5007088;28;20378;-45
2023/01/27 07:34:17;;;;;;;22.83;14.02;;;;;;;;;;5004757;28;20069;-44
2023/01/27 07:36:42;;;;;;;21.75;13.32;;;;;;;;;;5006556;28;20092;-45
2023/01/27 07:39:08;;;;;;;48.05;24.80;;;;;;;;;;5005267;28;20053;-44
2023/01/27 07:41:33;;;;;;;36.58;21.92;;;;;;;;;;5008315;28;20038;-47
2023/01/27 07:43:58;;;;;;;23.50;14.43;;;;;;;;;;5006664;28;20415;-46
2023/01/27 07:46:24;;;;;;;22.85;13.80;;;;;;;;;;5006629;28;20022;-45
2023/01/27 07:48:49;;;;;;;25.55;16.35;;;;;;;;;;5003632;28;20473;-48
2023/01/27 07:51:15;;;;;;;24.67;14.43;;;;;;;;;;5007219;28;20029;-50
2023/01/27 07:53:41;;;;;;;21.45;13.10;;;;;;;;;;5007403;28;20081;-45
2023/01/27 07:56:10;;;;;;;19.55;11.80;;;;;;;;;;5005464;28;20030;-46
2023/01/27 07:58:40;;;;;;;24.42;12.43;;;;;;;;;;5005130;28;20038;-49
2023/01/27 08:01:09;;;;;;;23.52;12.93;;;;;;;;;;5005852;28;20041;-47
2023/01/27 08:03:35;;;;;;;19.23;12.52;;;;;;;;;;5005454;28;20045;-44
2023/01/27 08:06:06;;;;;;;20.08;11.75;;;;;;;;;;5004761;28;20117;-44
2023/01/27 08:08:32;;;;;;;17.05;11.02;;;;;;;;;;5003457;28;20060;-45
2023/01/27 08:11:03;;;;;;;18.40;11.88;;;;;;;;;;5006675;28;20061;-45
2023/01/27 08:13:30;;;;;;;22.35;12.63;;;;;;;;;;5005974;28;20046;-45
2023/01/27 08:15:57;;;;;;;18.58;11.38;;;;;;;;;;5004036;28;20034;-50
2023/01/27 08:18:24;;;;;;;24.52;13.82;;;;;;;;;;5007470;28;20044;-50
2023/01/27 08:20:51;;;;;;;21.92;12.30;;;;;;;;;;5003247;28;20105;-51
2023/01/27 08:23:17;;;;;;;25.48;12.95;;;;;;;;;;5010190;28;20077;-42
2023/01/27 08:25:48;;;;;;;22.90;13.48;;;;;;;;;;5007091;28;20509;-45
2023/01/27 08:28:13;;;;;;;21.73;13.95;;;;;;;;;;5007718;28;20180;-47
2023/01/27 08:30:39;;;;;;;23.95;14.10;;;;;;;;;;5006872;28;20124;-48
2023/01/27 08:33:04;;;;;;;48.10;24.08;;;;;;;;;;5005225;28;20053;-45
2023/01/27 08:35:29;;;;;;;36.50;17.80;;;;;;;;;;5004153;28;20041;-43
2023/01/27 08:37:55;;;;;;;35.33;19.23;;;;;;;;;;5003400;28;20040;-43
2023/01/27 08:40:20;;;;;;;38.95;19.38;;;;;;;;;;5002583;28;20065;-43
2023/01/27 08:42:49;;;;;;;42.63;21.23;;;;;;;;;;5005907;28;20050;-44
2023/01/27 08:45:14;;;;;;;42.28;22.58;;;;;;;;;;5006385;28;20037;-43
2023/01/27 08:47:40;;;;;;;37.80;22.70;;;;;;;;;;5008056;28;20507;-44
2023/01/27 08:50:06;;;;;;;26.17;16.48;;;;;;;;;;5004639;28;20033;-44
2023/01/27 08:52:31;;;;;;;20.58;13.50;;;;;;;;;;5001922;28;20041;-48
2023/01/27 08:54:57;;;;;;;23.55;12.45;;;;;;;;;;5009564;28;20046;-48
2023/01/27 08:57:23;;;;;;;21.55;11.75;;;;;;;;;;5005607;28;20030;-43
2023/01/27 08:59:49;;;;;;;17.70;12.05;;;;;;;;;;5008226;28;20041;-44
2023/01/27 09:02:15;;;;;;;24.00;14.23;;;;;;;;;;5005854;28;20038;-46
2023/01/27 09:04:43;;;;;;;20.95;13.40;;;;;;;;;;5004692;28;20077;-43
2023/01/27 09:07:08;;;;;;;18.42;12.55;;;;;;;;;;5005262;28;20037;-43
2023/01/27 09:09:34;;;;;;;21.98;13.18;;;;;;;;;;5004956;28;20046;-47
2023/01/27 09:11:59;;;;;;;19.20;12.57;;;;;;;;;;5007600;28;20040;-46
2023/01/27 09:14:24;;;;;;;19.65;12.75;;;;;;;;;;5007810;28;20581;-47
2023/01/27 09:16:50;;;;;;;20.48;13.10;;;;;;;;;;5008088;28;20050;-43
2023/01/27 09:19:15;;;;;;;19.98;13.65;;;;;;;;;;5008033;28;20048;-47
2023/01/27 09:21:41;;;;;;;23.33;14.27;;;;;;;;;;5009647;28;20084;-43
2023/01/27 09:24:06;;;;;;;21.52;13.60;;;;;;;;;;5009252;28;20069;-46
2023/01/27 09:26:31;;;;;;;23.00;13.07;;;;;;;;;;5008088;28;20033;-43
2023/01/27 09:28:57;;;;;;;19.92;12.55;;;;;;;;;;5008940;28;20041;-45
2023/01/27 09:31:22;;;;;;;24.33;15.48;;;;;;;;;;5009828;28;20026;-46
2023/01/27 09:33:48;;;;;;;28.05;17.58;;;;;;;;;;5006965;28;20044;-48
2023/01/27 09:36:17;;;;;;;23.48;13.48;;;;;;;;;;5008928;28;20537;-44
2023/01/27 09:38:54;;;;;;;22.02;13.90;;;;;;;;;;5005984;28;20038;-49
2023/01/27 09:41:22;;;;;;;28.88;16.05;;;;;;;;;;5023332;28;20488;-44
2023/01/27 09:44:09;;;;;;;18.52;12.48;;;;;;;;;;5008099;28;20125;-43
2023/01/27 09:46:42;;;;;;;20.60;13.10;;;;;;;;;;5007257;28;20535;-43
2023/01/27 09:49:10;;;;;;;16.73;11.90;;;;;;;;;;5005538;28;20498;-44
2023/01/27 09:51:57;;;;;;;23.48;12.10;;;;;;;;;;5007058;28;20021;-48
2023/01/27 09:54:50;;;;;;;20.25;13.23;;;;;;;;;;5006051;28;20041;-47
2023/01/27 09:57:50;;;;;;;21.73;14.27;;;;;;;;;;5008331;28;20125;-44
2023/01/27 10:00:31;;;;;;;19.90;12.20;;;;;;;;;;5010277;28;20121;-46
2023/01/27 10:03:22;;;;;;;27.00;14.63;;;;;;;;;;5006999;28;20045;-44
2023/01/27 10:06:06;;;;;;;18.52;11.73;;;;;;;;;;5008641;28;20033;-44
2023/01/27 10:08:42;;;;;;;34.97;17.85;;;;;;;;;;5007522;28;20073;-46
2023/01/27 10:11:34;;;;;;;25.33;14.65;;;;;;;;;;5010288;28;20057;-43
2023/01/27 10:14:21;;;;;;;26.67;11.73;;;;;;;;;;5005950;28;20042;-43
2023/01/27 10:17:01;;;;;;;24.27;13.68;;;;;;;;;;5008733;28;20038;-44
2023/01/27 10:19:43;;;;;;;48.33;21.50;;;;;;;;;;5007130;28;20046;-44
2023/01/27 10:22:31;;;;;;;26.48;16.00;;;;;;;;;;5007652;28;20041;-44
2023/01/27 10:25:14;;;;;;;21.30;11.27;;;;;;;;;;5006417;28;20050;-46
2023/01/27 10:27:46;;;;;;;20.42;11.95;;;;;;;;;;5007674;28;20064;-44
2023/01/27 10:30:16;;;;;;;28.85;16.33;;;;;;;;;;5008335;28;20068;-43
2023/01/27 10:32:56;;;;;;;31.42;18.15;;;;;;;;;;5006945;28;20038;-44
2023/01/27 10:35:28;;;;;;;19.50;11.40;;;;;;;;;;5004725;28;20030;-49
2023/01/27 10:38:12;;;;;;;17.98;12.02;;;;;;;;;;5036268;28;20418;-45
2023/01/27 10:40:53;;;;;;;24.15;12.98;;;;;;;;;;5005252;28;20048;-43
2023/01/27 10:43:29;;;;;;;22.50;12.82;;;;;;;;;;5008633;28;20038;-46
2023/01/27 10:46:01;;;;;;;21.67;12.38;;;;;;;;;;5007036;28;20479;-46
2023/01/27 10:48:44;;;;;;;22.02;12.30;;;;;;;;;;5008439;28;20507;-42
2023/01/27 10:51:22;;;;;;;17.95;11.77;;;;;;;;;;5008833;28;20042;-45
2023/01/27 10:53:59;;;;;;;22.50;12.25;;;;;;;;;;5008867;28;20665;-43
2023/01/27 10:57:19;;;;;;;17.90;11.13;;;;;;;;;;5006017;28;20022;-46
2023/01/27 11:00:14;;;;;;;17.75;10.85;;;;;;;;;;5005242;28;20063;-43
2023/01/27 11:02:52;;;;;;;15.10;10.20;;;;;;;;;;5005644;28;20608;-44
2023/01/27 11:05:27;;;;;;;18.30;11.70;;;;;;;;;;5005413;28;20565;-44
2023/01/27 11:08:01;;;;;;;16.60;11.55;;;;;;;;;;5001847;28;20082;-43
2023/01/27 11:10:35;;;;;;;18.38;11.32;;;;;;;;;;5003175;28;20041;-45
2023/01/27 11:13:03;;;;;;;15.35;10.75;;;;;;;;;;5001064;28;20068;-46
2023/01/27 11:15:34;;;;;;;16.33;11.15;;;;;;;;;;5003070;28;21445;-45
2023/01/27 11:18:18;;;;;;;17.42;10.60;;;;;;;;;;4997593;28;20097;-44
2023/01/27 11:20:49;;;;;;;17.50;10.77;;;;;;;;;;4999909;28;20104;-49
2023/01/27 11:23:20;;;;;;;26.17;11.68;;;;;;;;;;4997704;28;20518;-45
2023/01/27 11:26:10;;;;;;;21.63;11.57;;;;;;;;;;5000321;28;20044;-43
2023/01/27 11:28:52;;;;;;;17.48;11.65;;;;;;;;;;5006230;28;20384;-43
2023/01/27 11:31:55;;;;;;;19.95;12.32;;;;;;;;;;5000802;28;20099;-50
2023/01/27 11:34:46;;;;;;;18.83;12.30;;;;;;;;;;5005897;28;20042;-43
2023/01/27 11:37:35;;;;;;;20.02;12.85;;;;;;;;;;5005939;28;20482;-46
2023/01/27 11:40:01;;;;;;;18.38;13.25;;;;;;;;;;5006384;28;20051;-46
2023/01/27 11:42:31;;;;;;;22.60;12.93;;;;;;;;;;5005519;28;20040;-44
2023/01/27 11:44:57;;;;;;;19.45;13.23;;;;;;;;;;5007114;28;20475;-44
2023/01/27 11:47:26;;;;;;;19.85;13.02;;;;;;;;;;5007146;28;20034;-45
2023/01/27 11:49:53;;;;;;;20.13;12.38;;;;;;;;;;5006117;28;20021;-42
2023/01/27 11:52:21;;;;;;;18.70;12.27;;;;;;;;;;5005702;28;20053;-45
2023/01/27 11:55:13;;;;;;;20.45;12.48;;;;;;;;;;5005961;28;20022;-46
2023/01/27 11:57:45;;;;;;;21.15;13.55;;;;;;;;;;5004469;28;20105;-47
2023/01/27 12:00:27;;;;;;;20.52;13.00;;;;;;;;;;5008253;28;20042;-48
2023/01/27 12:03:05;;;;;;;17.95;12.30;;;;;;;;;;5007461;28;20045;-46
2023/01/27 12:05:33;;;;;;;20.00;11.93;;;;;;;;;;5003949;28;20068;-44
2023/01/27 12:08:01;;;;;;;20.85;13.65;;;;;;;;;;5007268;28;20072;-43
2023/01/27 12:10:37;;;;;;;19.48;13.15;;;;;;;;;;5006345;28;20075;-45
2023/01/27 12:13:29;;;;;;;17.85;12.10;;;;;;;;;;5006811;28;20038;-43
2023/01/27 12:16:04;;;;;;;17.17;12.05;;;;;;;;;;5005244;28;20041;-44
2023/01/27 12:18:32;;;;;;;19.48;13.07;;;;;;;;;;5005673;28;20034;-48
2023/01/27 12:21:05;;;;;;;17.17;12.55;;;;;;;;;;5005518;28;20499;-42
2023/01/27 12:23:33;;;;;;;;;;;;;;;;;;5003752;28;20046;-48
2023/01/27 12:26:01;;;;;;;19.48;13.32;;;;;;;;;;5006754;28;19921;-46
2023/01/27 12:28:40;;;;;;;20.23;13.75;;;;;;;;;;5004654;28;20136;-45
2023/01/27 12:31:42;;;;;;;23.42;13.50;;;;;;;;;;5005841;28;20041;-46
2023/01/27 12:34:28;;;;;;;;;;;;;;;;;;5000847;28;20589;-48
2023/01/27 12:36:55;;;;;;;21.75;12.93;;;;;;;;;;5008821;28;19918;-44
2023/01/27 12:39:31;;;;;;;18.58;12.20;;;;;;;;;;5006209;28;20038;-46
2023/01/27 12:41:57;;;;;;;18.98;12.70;;;;;;;;;;5006500;28;20783;-44
2023/01/27 12:44:24;;;;;;;21.92;13.02;;;;;;;;;;5005887;28;20659;-45
2023/01/27 12:46:58;;;;;;;22.77;14.18;;;;;;;;;;5004505;28;20080;-44
2023/01/27 12:49:32;;;;;;;17.52;12.23;;;;;;;;;;5004944;28;20030;-43
2023/01/27 12:52:02;;;;;;;16.48;12.18;;;;;;;;;;5001790;28;20038;-45
2023/01/27 12:54:33;;;;;;;18.88;11.68;;;;;;;;;;5004117;28;20049;-45
2023/01/27 12:57:13;;;;;;;19.38;10.43;;;;;;;;;;5005961;28;20017;-48
2023/01/27 12:59:49;;;;;;;15.20;11.00;;;;;;;;;;5006779;28;20052;-44
2023/01/27 13:02:24;;;;;;;17.83;11.32;;;;;;;;;;5000910;28;20028;-44
2023/01/27 13:05:06;;;;;;;13.85;9.70;;;;;;;;;;5006398;28;20073;-44
2023/01/27 13:07:51;;;;;;;13.95;10.07;;;;;;;;;;5001393;28;22192;-43
2023/01/27 13:10:24;;;;;;;15.90;10.40;;;;;;;;;;5004865;28;20038;-46
2023/01/27 13:12:51;;;;;;;19.02;11.85;;;;;;;;;;5006460;28;20076;-44
2023/01/27 13:15:19;;;;;;;14.23;10.48;;;;;;;;;;5005794;28;20790;-44
2023/01/27 13:17:50;;;;;;;17.67;10.77;;;;;;;;;;5004311;28;20045;-44
2023/01/27 13:20:44;;;;;;;15.40;10.77;;;;;;;;;;5037018;28;20030;-45
2023/01/27 13:23:29;;;;;;;16.73;11.48;;;;;;;;;;5003601;28;20049;-45
2023/01/27 13:26:04;;;;;;;16.90;11.73;;;;;;;;;;5005617;28;20168;-44
2023/01/27 13:28:41;;;;;;;20.85;11.07;;;;;;;;;;5001620;28;20042;-44
2023/01/27 13:31:15;;;;;;;20.38;10.52;;;;;;;;;;5004701;28;20038;-45
2023/01/27 13:34:15;;;;;;;18.27;12.55;;;;;;;;;;5002129;28;20053;-45
2023/01/27 13:36:55;;;;;;;16.13;10.98;;;;;;;;;;5002034;28;20064;-47
2023/01/27 13:39:39;;;;;;;16.23;11.18;;;;;;;;;;5002739;28;20081;-44
2023/01/27 13:42:04;;;;;;;15.60;10.60;;;;;;;;;;5003243;28;20164;-44
2023/01/27 13:44:53;;;;;;;12.57;9.93;;;;;;;;;;5004842;28;20129;-44
2023/01/27 13:47:53;;;;;;;11.45;9.00;;;;;;;;;;5004166;28;20533;-45
2023/01/27 13:50:21;;;;;;;10.98;8.85;;;;;;;;;;4981883;28;20050;-46
2023/01/27 13:52:50;;;;;;;13.68;9.60;;;;;;;;;;4976121;28;20060;-45
2023/01/27 13:55:21;;;;;;;12.63;9.68;;;;;;;;;;4979308;28;20484;-46
2023/01/27 13:58:08;;;;;;;11.38;8.85;;;;;;;;;;4982743;28;20483;-45
2023/01/27 14:01:01;;;;;;;16.17;9.85;;;;;;;;;;4980302;28;20046;-47
2023/01/27 14:03:46;;;;;;;11.95;8.48;;;;;;;;;;4985854;28;20049;-47
2023/01/27 14:06:23;;;;;;;13.52;9.80;;;;;;;;;;4988122;28;20881;-43
2023/01/27 14:09:02;;;;;;;13.43;9.32;;;;;;;;;;4983056;28;20113;-47
2023/01/27 14:11:51;;;;;;;16.23;10.32;;;;;;;;;;4987081;28;20037;-48
2023/01/27 14:14:47;;;;;;;15.63;9.35;;;;;;;;;;4986900;28;20043;-43
2023/01/27 14:17:25;;;;;;;16.08;9.80;;;;;;;;;;4985251;28;20038;-41
2023/01/27 14:20:31;;;;;;;20.15;11.52;;;;;;;;;;4986532;28;20042;-45
2023/01/27 14:23:21;;;;;;;17.55;11.23;;;;;;;;;;4986337;28;20042;-43
2023/01/27 14:25:58;;;;;;;12.93;9.18;;;;;;;;;;4982965;28;20116;-44
2023/01/27 14:28:37;;;;;;;19.50;10.07;;;;;;;;;;4989883;28;20073;-46
2023/01/27 14:31:27;;;;;;;15.60;9.68;;;;;;;;;;5004790;28;20386;-46
2023/01/27 14:34:46;;;;;;;20.35;11.45;;;;;;;;;;4984813;28;20045;-46
2023/01/27 14:37:33;;;;;;;18.40;11.60;;;;;;;;;;4933732;29;20828;-44
2023/01/27 14:40:24;;;;;;;16.65;10.60;;;;;;;;;;4958148;28;20415;-47
2023/01/27 14:43:00;;;;;;;17.50;11.55;;;;;;;;;;4948527;28;20047;-44
2023/01/27 14:45:37;;;;;;;19.20;12.38;;;;;;;;;;4956689;28;20075;-44
2023/01/27 14:48:50;;;;;;;16.75;10.50;;;;;;;;;;4958927;28;20035;-45
2023/01/27 14:51:37;;;;;;;18.80;10.82;;;;;;;;;;4919802;29;22321;-45
2023/01/27 14:54:22;;;;;;;17.67;10.80;;;;;;;;;;4915428;29;20107;-45
2023/01/27 14:57:32;;;;;;;19.15;12.77;;;;;;;;;;4918547;29;20028;-43
2023/01/27 15:00:55;;;;;;;17.52;12.27;;;;;;;;;;4852108;29;20061;-43
2023/01/27 15:03:39;;;;;;;18.65;11.07;;;;;;;;;;4814107;29;20073;-43
2023/01/27 15:06:29;;;;;;;15.32;10.27;;;;;;;;;;4815604;29;20762;-43
2023/01/27 15:09:13;;;;;;;13.68;8.90;;;;;;;;;;4814509;29;20477;-43
2023/01/27 15:11:53;;;;;;;13.25;10.15;;;;;;;;;;4866169;29;20706;-43
2023/01/27 15:14:33;;;;;;;25.30;13.70;;;;;;;;;;4874801;29;20056;-45
2023/01/27 15:17:27;;;;;;;18.58;11.63;;;;;;;;;;4876988;29;20040;-44
2023/01/27 15:20:20;;;;;;;17.33;9.80;;;;;;;;;;4874358;29;20073;-43
2023/01/27 15:22:54;;;;;;;13.95;9.88;;;;;;;;;;4870279;29;20198;-44